Truth — WYV5559 — position and weather

sailwx.info

Track history (hours):
 
Tides and Currents Weather Stations Pressure Air Temp Water Temp Dewpoint Dewpoint Depression Visibility Wind Speed Wind Dir Waves Ship Positions

Truth

Owner: TRUTH AQUATIES INC, SANTA BARBARA, CA. More information available from US FCC via Universal Licensing System and Coast Guard Vessel Documentation Center.

Last reported at 2017-Sep-24 01:18 UTC. Time now 2017-Sep-24 03:30 UTC.
Position N 34°24' W 119°42'.

Length 22 m.

Type: Diving. MMSI: 367384840.

Date/timePositionNaut miles runAvg speedWind from/ knotsBaromVisibWave heightAir tempDewpointWater temp
2017-Sep-24 01:18N 34°24' W 119°42'0 0.5
2017-Sep-24 00:55N 34°25' W 119°41'7 8.8
2017-Sep-24 00:10N 34°23' W 119°49'210.0
2017-Sep-23 23:59N 34°24' W 119°51'6 9.8
2017-Sep-23 23:22N 34°24' W 119°59'4 9.7
2017-Sep-23 22:57N 34°25' W 120°03'510.0
2017-Sep-23 22:25N 34°26' W 120°10'5 9.8
2017-Sep-23 21:55N 34°26' W 120°16'5 9.8
2017-Sep-23 21:26N 34°26' W 120°21'33 0.8
2017-Sep-22 01:59N 34°24' W 119°42'0 0.0
2017-Sep-22 00:47N 34°24' W 119°42'0 0.0
2017-Sep-22 00:17N 34°24' W 119°42'0 1.1
2017-Sep-21 23:55N 34°24' W 119°41'4 9.0
2017-Sep-21 23:28N 34°21' W 119°39'6 9.3
2017-Sep-21 22:47N 34°14' W 119°39'4 9.1
2017-Sep-21 22:22N 34°11' W 119°37'5 9.4
2017-Sep-21 21:53N 34°07' W 119°35'3 9.1
2017-Sep-21 21:30N 34°04' W 119°32'16 2.6
2017-Sep-21 15:10N 33°56' W 119°50'210.3
2017-Sep-21 14:58N 33°56' W 119°52'4 9.7
2017-Sep-21 14:30N 33°56' W 119°58'1 0.1
2017-Sep-20 20:58N 33°57' W 119°58'4 7.8
2017-Sep-20 20:26N 34°00' W 120°01'1 1.7
2017-Sep-20 19:35N 34°01' W 120°03'0 0.0
2017-Sep-20 15:11N 34°01' W 120°03'0 0.0
2017-Sep-20 14:49N 34°01' W 120°03'4 4.4
2017-Sep-20 13:58N 34°01' W 119°58'6 9.9
2017-Sep-20 13:19N 34°07' W 119°54'4 9.7
2017-Sep-20 12:56N 34°10' W 119°51'410.0
2017-Sep-20 12:30N 34°13' W 119°48'5 9.9
2017-Sep-20 11:58N 34°18' W 119°45'5 9.8
2017-Sep-20 11:25N 34°22' W 119°42'2 1.0
2017-Sep-20 09:20N 34°24' W 119°42'0 0.0
2017-Sep-20 08:59N 34°24' W 119°42'0 0.0
2017-Sep-20 05:08N 34°24' W 119°42'0 0.0
2017-Sep-20 04:35N 34°24' W 119°42'0 0.0
2017-Sep-19 21:29N 34°24' W 119°42'0 0.0
2017-Sep-19 17:11N 34°24' W 119°42'0 0.0
2017-Sep-19 16:53N 34°24' W 119°42'0 0.0
2017-Sep-19 16:20N 34°24' W 119°42'0 0.0
2017-Sep-19 15:50N 34°24' W 119°42'0 0.0
2017-Sep-19 13:05N 34°24' W 119°42'0 0.0
2017-Sep-19 12:47N 34°24' W 119°42'0 0.0
2017-Sep-19 11:14N 34°24' W 119°42'0 0.0
2017-Sep-19 10:35N 34°24' W 119°42'0 0.0
2017-Sep-19 10:29N 34°24' W 119°42'0 0.0
2017-Sep-19 04:41N 34°24' W 119°42'0 0.0
2017-Sep-19 04:14N 34°24' W 119°42'0 0.0
2017-Sep-19 03:44N 34°24' W 119°42'0 0.0
2017-Sep-19 03:02N 34°24' W 119°42'0 0.0
2017-Sep-19 02:02N 34°24' W 119°42'0 0.0
2017-Sep-19 01:59N 34°24' W 119°42'0 0.5
2017-Sep-19 01:28N 34°25' W 119°41'6 9.5
2017-Sep-19 00:53N 34°21' W 119°36'5 9.7
2017-Sep-19 00:22N 34°17' W 119°32'4 9.5
2017-Sep-18 23:55N 34°13' W 119°30'4 9.5
2017-Sep-18 23:30N 34°09' W 119°29'6 9.7
2017-Sep-18 22:52N 34°03' W 119°28'4 2.0
2017-Sep-18 20:51N 34°00' W 119°24'1 0.5
2017-Sep-18 18:44N 34°00' W 119°23'1 3.3
2017-Sep-18 18:30N 34°00' W 119°22'1 1.3
2017-Sep-18 17:58N 34°01' W 119°22'0 0.0
2017-Sep-18 17:28N 34°01' W 119°22'0 0.0
2017-Sep-18 16:58N 34°01' W 119°22'0 0.0
2017-Sep-18 16:28N 34°01' W 119°22'0 0.0
2017-Sep-18 15:55N 34°01' W 119°22'0 0.0
2017-Sep-18 15:28N 34°01' W 119°22'0 0.0
2017-Sep-18 14:55N 34°01' W 119°22'1 3.1
2017-Sep-18 14:30N 34°02' W 119°23'510.0
2017-Sep-18 14:00N 34°06' W 119°27'610.0
2017-Sep-18 13:25N 34°11' W 119°30'6 9.9
2017-Sep-18 12:51N 34°16' W 119°33'7 9.9
2017-Sep-18 12:11N 34°21' W 119°37'2 9.9
2017-Sep-18 11:59N 34°23' W 119°39'2 0.7
2017-Sep-18 08:38N 34°24' W 119°42'0 0.0
2017-Sep-18 08:08N 34°24' W 119°42'0 0.0
2017-Sep-18 07:50N 34°24' W 119°42'0 0.0
2017-Sep-18 06:17N 34°24' W 119°42'0 0.0
2017-Sep-18 05:11N 34°24' W 119°42'0 0.0
2017-Sep-18 04:08N 34°24' W 119°42'0 0.0
2017-Sep-18 03:59N 34°24' W 119°42'0 0.0
2017-Sep-18 01:38N 34°24' W 119°42'0 0.1
2017-Sep-18 00:29N 34°24' W 119°41'3 7.1
2017-Sep-18 00:01N 34°21' W 119°43'6 9.7
2017-Sep-17 23:25N 34°17' W 119°47'3 7.3
2017-Sep-17 22:57N 34°14' W 119°49'5 8.6
2017-Sep-17 22:19N 34°09' W 119°52'3 9.9
2017-Sep-17 22:00N 34°06' W 119°53'2 2.1
2017-Sep-17 21:17N 34°04' W 119°54'0 0.0
2017-Sep-17 20:59N 34°04' W 119°54'0 0.0
2017-Sep-17 20:17N 34°04' W 119°54'0 0.0
2017-Sep-17 19:53N 34°04' W 119°54'0 0.0
2017-Sep-17 19:29N 34°04' W 119°54'0 0.0
2017-Sep-17 18:56N 34°04' W 119°54'0 0.0
2017-Sep-17 18:29N 34°04' W 119°54'0 0.0
2017-Sep-17 17:59N 34°04' W 119°54'0 0.0
2017-Sep-17 17:29N 34°04' W 119°54'0 0.0
2017-Sep-17 16:56N 34°04' W 119°54'0 0.0
2017-Sep-17 16:29N 34°04' W 119°54'0 0.0
2017-Sep-17 15:44N 34°04' W 119°54'0 0.0
2017-Sep-17 15:29N 34°04' W 119°54'0 0.0
2017-Sep-17 14:59N 34°04' W 119°54'1 2.3
2017-Sep-17 14:30N 34°04' W 119°52'5 9.8
2017-Sep-17 13:57N 34°04' W 119°46'4 9.7
2017-Sep-17 13:30N 34°01' W 119°41'0 0.1
2017-Sep-17 13:00N 34°01' W 119°41'0 0.0
2017-Sep-17 12:27N 34°01' W 119°41'0 0.0
2017-Sep-17 12:00N 34°01' W 119°41'0 0.0
2017-Sep-17 11:30N 34°01' W 119°41'0 0.0
2017-Sep-17 11:00N 34°01' W 119°41'0 0.0
2017-Sep-17 10:30N 34°01' W 119°41'0 0.0
2017-Sep-17 10:00N 34°01' W 119°41'0 0.0
2017-Sep-17 09:30N 34°01' W 119°41'0 0.0
2017-Sep-17 09:00N 34°01' W 119°41'0 0.0
2017-Sep-17 08:30N 34°01' W 119°41'0 0.0
2017-Sep-17 08:00N 34°01' W 119°41'0 0.0
2017-Sep-17 07:27N 34°01' W 119°41'0 0.0
2017-Sep-17 06:57N 34°01' W 119°41'0 0.0
2017-Sep-17 06:27N 34°01' W 119°41'0 0.0
2017-Sep-17 05:09N 34°01' W 119°41'0 0.0
2017-Sep-17 04:57N 34°01' W 119°41'0 0.0
2017-Sep-17 04:21N 34°01' W 119°41'0 0.0
2017-Sep-17 03:54N 34°01' W 119°41'0 0.0
2017-Sep-17 03:30N 34°01' W 119°41'0 0.0
2017-Sep-17 02:54N 34°01' W 119°41'0 0.0
2017-Sep-17 02:30N 34°01' W 119°41'1 0.9
2017-Sep-17 01:55N 34°02' W 119°42'0 0.0
2017-Sep-17 01:25N 34°02' W 119°42'0 0.0
2017-Sep-17 00:55N 34°02' W 119°42'0 0.0
2017-Sep-17 00:30N 34°02' W 119°42'3 5.7
2017-Sep-17 00:00N 34°03' W 119°45'5 9.6
2017-Sep-16 23:29N 34°04' W 119°51'2 4.0
2017-Sep-16 23:01N 34°04' W 119°53'0 0.0
2017-Sep-16 22:15N 34°04' W 119°53'0 0.0
2017-Sep-16 22:00N 34°04' W 119°53'0 0.1
2017-Sep-16 21:24N 34°04' W 119°53'0 0.0
2017-Sep-16 20:57N 34°04' W 119°53'0 0.0
2017-Sep-16 20:30N 34°04' W 119°53'0 0.1
2017-Sep-16 19:58N 34°04' W 119°53'3 6.9
2017-Sep-16 19:30N 34°03' W 119°49'0 0.1
2017-Sep-16 18:56N 34°03' W 119°49'0 0.0
2017-Sep-16 18:26N 34°03' W 119°49'0 0.0
2017-Sep-16 17:47N 34°03' W 119°49'0 0.0
2017-Sep-16 17:20N 34°03' W 119°49'0 0.0
2017-Sep-16 16:59N 34°03' W 119°49'0 0.0
2017-Sep-16 14:14N 34°03' W 119°49'1 2.9
2017-Sep-16 13:59N 34°04' W 119°50'3 6.7
2017-Sep-16 13:30N 34°04' W 119°54'4 7.7
2017-Sep-16 12:57N 34°09' W 119°53'5 9.3
2017-Sep-16 12:27N 34°13' W 119°50'5 9.6
2017-Sep-16 11:56N 34°17' W 119°47'4 9.7
2017-Sep-16 11:30N 34°20' W 119°44'5 3.1
2017-Sep-16 09:59N 34°24' W 119°42'0 0.0
2017-Sep-15 14:05N 34°24' W 119°42'0 0.0
2017-Sep-15 13:41N 34°24' W 119°42'0 0.0
2017-Sep-15 12:20N 34°24' W 119°42'0 0.0
2017-Sep-15 11:17N 34°24' W 119°42'0 0.0
2017-Sep-15 10:59N 34°24' W 119°42'0 0.0
2017-Sep-15 07:26N 34°24' W 119°42'0 0.0
2017-Sep-15 06:50N 34°24' W 119°42'0 0.0
2017-Sep-14 14:29N 34°24' W 119°42'0 0.0
2017-Sep-14 12:29N 34°24' W 119°42'  
Track history (hours):
 
Tides and Currents Weather Stations Pressure Air Temp Water Temp Dewpoint Dewpoint Depression Visibility Wind Speed Wind Dir Waves Ship Positions

Truth

Owner: TRUTH AQUATIES INC, SANTA BARBARA, CA. More information available from US FCC via Universal Licensing System and Coast Guard Vessel Documentation Center.

Last reported at 2017-Sep-24 01:18 UTC. Time now 2017-Sep-24 03:30 UTC.
Position N 34°24' W 119°42'.

Length 22 m.

Type: Diving. MMSI: 367384840.

Date/timePositionNaut miles runAvg speedWind from/ knotsBaromVisibWave heightAir tempDewpointWater temp
2017-Sep-24 01:18N 34°24' W 119°42'0 0.5
2017-Sep-24 00:55N 34°25' W 119°41'7 8.8
2017-Sep-24 00:10N 34°23' W 119°49'210.0
2017-Sep-23 23:59N 34°24' W 119°51'6 9.8
2017-Sep-23 23:22N 34°24' W 119°59'4 9.7
2017-Sep-23 22:57N 34°25' W 120°03'510.0
2017-Sep-23 22:25N 34°26' W 120°10'5 9.8
2017-Sep-23 21:55N 34°26' W 120°16'5 9.8
2017-Sep-23 21:26N 34°26' W 120°21'33 0.8
2017-Sep-22 01:59N 34°24' W 119°42'0 0.0
2017-Sep-22 00:47N 34°24' W 119°42'0 0.0
2017-Sep-22 00:17N 34°24' W 119°42'0 1.1
2017-Sep-21 23:55N 34°24' W 119°41'4 9.0
2017-Sep-21 23:28N 34°21' W 119°39'6 9.3
2017-Sep-21 22:47N 34°14' W 119°39'4 9.1
2017-Sep-21 22:22N 34°11' W 119°37'5 9.4
2017-Sep-21 21:53N 34°07' W 119°35'3 9.1
2017-Sep-21 21:30N 34°04' W 119°32'16 2.6
2017-Sep-21 15:10N 33°56' W 119°50'210.3
2017-Sep-21 14:58N 33°56' W 119°52'4 9.7
2017-Sep-21 14:30N 33°56' W 119°58'1 0.1
2017-Sep-20 20:58N 33°57' W 119°58'4 7.8
2017-Sep-20 20:26N 34°00' W 120°01'1 1.7
2017-Sep-20 19:35N 34°01' W 120°03'0 0.0
2017-Sep-20 15:11N 34°01' W 120°03'0 0.0
2017-Sep-20 14:49N 34°01' W 120°03'4 4.4
2017-Sep-20 13:58N 34°01' W 119°58'6 9.9
2017-Sep-20 13:19N 34°07' W 119°54'4 9.7
2017-Sep-20 12:56N 34°10' W 119°51'410.0
2017-Sep-20 12:30N 34°13' W 119°48'5 9.9
2017-Sep-20 11:58N 34°18' W 119°45'5 9.8
2017-Sep-20 11:25N 34°22' W 119°42'2 1.0
2017-Sep-20 09:20N 34°24' W 119°42'0 0.0
2017-Sep-20 08:59N 34°24' W 119°42'0 0.0
2017-Sep-20 05:08N 34°24' W 119°42'0 0.0
2017-Sep-20 04:35N 34°24' W 119°42'0 0.0
2017-Sep-19 21:29N 34°24' W 119°42'0 0.0
2017-Sep-19 17:11N 34°24' W 119°42'0 0.0
2017-Sep-19 16:53N 34°24' W 119°42'0 0.0
2017-Sep-19 16:20N 34°24' W 119°42'0 0.0
2017-Sep-19 15:50N 34°24' W 119°42'0 0.0
2017-Sep-19 13:05N 34°24' W 119°42'0 0.0
2017-Sep-19 12:47N 34°24' W 119°42'0 0.0
2017-Sep-19 11:14N 34°24' W 119°42'0 0.0
2017-Sep-19 10:35N 34°24' W 119°42'0 0.0
2017-Sep-19 10:29N 34°24' W 119°42'0 0.0
2017-Sep-19 04:41N 34°24' W 119°42'0 0.0
2017-Sep-19 04:14N 34°24' W 119°42'0 0.0
2017-Sep-19 03:44N 34°24' W 119°42'0 0.0
2017-Sep-19 03:02N 34°24' W 119°42'0 0.0
2017-Sep-19 02:02N 34°24' W 119°42'0 0.0
2017-Sep-19 01:59N 34°24' W 119°42'0 0.5
2017-Sep-19 01:28N 34°25' W 119°41'6 9.5
2017-Sep-19 00:53N 34°21' W 119°36'5 9.7
2017-Sep-19 00:22N 34°17' W 119°32'4 9.5
2017-Sep-18 23:55N 34°13' W 119°30'4 9.5
2017-Sep-18 23:30N 34°09' W 119°29'6 9.7
2017-Sep-18 22:52N 34°03' W 119°28'4 2.0
2017-Sep-18 20:51N 34°00' W 119°24'1 0.5
2017-Sep-18 18:44N 34°00' W 119°23'1 3.3
2017-Sep-18 18:30N 34°00' W 119°22'1 1.3
2017-Sep-18 17:58N 34°01' W 119°22'0 0.0
2017-Sep-18 17:28N 34°01' W 119°22'0 0.0
2017-Sep-18 16:58N 34°01' W 119°22'0 0.0
2017-Sep-18 16:28N 34°01' W 119°22'0 0.0
2017-Sep-18 15:55N 34°01' W 119°22'0 0.0
2017-Sep-18 15:28N 34°01' W 119°22'0 0.0
2017-Sep-18 14:55N 34°01' W 119°22'1 3.1
2017-Sep-18 14:30N 34°02' W 119°23'510.0
2017-Sep-18 14:00N 34°06' W 119°27'610.0
2017-Sep-18 13:25N 34°11' W 119°30'6 9.9
2017-Sep-18 12:51N 34°16' W 119°33'7 9.9
2017-Sep-18 12:11N 34°21' W 119°37'2 9.9
2017-Sep-18 11:59N 34°23' W 119°39'2 0.7
2017-Sep-18 08:38N 34°24' W 119°42'0 0.0
2017-Sep-18 08:08N 34°24' W 119°42'0 0.0
2017-Sep-18 07:50N 34°24' W 119°42'0 0.0
2017-Sep-18 06:17N 34°24' W 119°42'0 0.0
2017-Sep-18 05:11N 34°24' W 119°42'0 0.0
2017-Sep-18 04:08N 34°24' W 119°42'0 0.0
2017-Sep-18 03:59N 34°24' W 119°42'0 0.0
2017-Sep-18 01:38N 34°24' W 119°42'0 0.1
2017-Sep-18 00:29N 34°24' W 119°41'3 7.1
2017-Sep-18 00:01N 34°21' W 119°43'6 9.7
2017-Sep-17 23:25N 34°17' W 119°47'3 7.3
2017-Sep-17 22:57N 34°14' W 119°49'5 8.6
2017-Sep-17 22:19N 34°09' W 119°52'3 9.9
2017-Sep-17 22:00N 34°06' W 119°53'2 2.1
2017-Sep-17 21:17N 34°04' W 119°54'0 0.0
2017-Sep-17 20:59N 34°04' W 119°54'0 0.0
2017-Sep-17 20:17N 34°04' W 119°54'0 0.0
2017-Sep-17 19:53N 34°04' W 119°54'0 0.0
2017-Sep-17 19:29N 34°04' W 119°54'0 0.0
2017-Sep-17 18:56N 34°04' W 119°54'0 0.0
2017-Sep-17 18:29N 34°04' W 119°54'0 0.0
2017-Sep-17 17:59N 34°04' W 119°54'0 0.0
2017-Sep-17 17:29N 34°04' W 119°54'0 0.0
2017-Sep-17 16:56N 34°04' W 119°54'0 0.0
2017-Sep-17 16:29N 34°04' W 119°54'0 0.0
2017-Sep-17 15:44N 34°04' W 119°54'0 0.0
2017-Sep-17 15:29N 34°04' W 119°54'0 0.0
2017-Sep-17 14:59N 34°04' W 119°54'1 2.3
2017-Sep-17 14:30N 34°04' W 119°52'5 9.8
2017-Sep-17 13:57N 34°04' W 119°46'4 9.7
2017-Sep-17 13:30N 34°01' W 119°41'0 0.1
2017-Sep-17 13:00N 34°01' W 119°41'0 0.0
2017-Sep-17 12:27N 34°01' W 119°41'0 0.0
2017-Sep-17 12:00N 34°01' W 119°41'0 0.0
2017-Sep-17 11:30N 34°01' W 119°41'0 0.0
2017-Sep-17 11:00N 34°01' W 119°41'0 0.0
2017-Sep-17 10:30N 34°01' W 119°41'0 0.0
2017-Sep-17 10:00N 34°01' W 119°41'0 0.0
2017-Sep-17 09:30N 34°01' W 119°41'0 0.0
2017-Sep-17 09:00N 34°01' W 119°41'0 0.0
2017-Sep-17 08:30N 34°01' W 119°41'0 0.0
2017-Sep-17 08:00N 34°01' W 119°41'0 0.0
2017-Sep-17 07:27N 34°01' W 119°41'0 0.0
2017-Sep-17 06:57N 34°01' W 119°41'0 0.0
2017-Sep-17 06:27N 34°01' W 119°41'0 0.0
2017-Sep-17 05:09N 34°01' W 119°41'0 0.0
2017-Sep-17 04:57N 34°01' W 119°41'0 0.0
2017-Sep-17 04:21N 34°01' W 119°41'0 0.0
2017-Sep-17 03:54N 34°01' W 119°41'0 0.0
2017-Sep-17 03:30N 34°01' W 119°41'0 0.0
2017-Sep-17 02:54N 34°01' W 119°41'0 0.0
2017-Sep-17 02:30N 34°01' W 119°41'1 0.9
2017-Sep-17 01:55N 34°02' W 119°42'0 0.0
2017-Sep-17 01:25N 34°02' W 119°42'0 0.0
2017-Sep-17 00:55N 34°02' W 119°42'0 0.0
2017-Sep-17 00:30N 34°02' W 119°42'3 5.7
2017-Sep-17 00:00N 34°03' W 119°45'5 9.6
2017-Sep-16 23:29N 34°04' W 119°51'2 4.0
2017-Sep-16 23:01N 34°04' W 119°53'0 0.0
2017-Sep-16 22:15N 34°04' W 119°53'0 0.0
2017-Sep-16 22:00N 34°04' W 119°53'0 0.1
2017-Sep-16 21:24N 34°04' W 119°53'0 0.0
2017-Sep-16 20:57N 34°04' W 119°53'0 0.0
2017-Sep-16 20:30N 34°04' W 119°53'0 0.1
2017-Sep-16 19:58N 34°04' W 119°53'3 6.9
2017-Sep-16 19:30N 34°03' W 119°49'0 0.1
2017-Sep-16 18:56N 34°03' W 119°49'0 0.0
2017-Sep-16 18:26N 34°03' W 119°49'0 0.0
2017-Sep-16 17:47N 34°03' W 119°49'0 0.0
2017-Sep-16 17:20N 34°03' W 119°49'0 0.0
2017-Sep-16 16:59N 34°03' W 119°49'0 0.0
2017-Sep-16 14:14N 34°03' W 119°49'1 2.9
2017-Sep-16 13:59N 34°04' W 119°50'3 6.7
2017-Sep-16 13:30N 34°04' W 119°54'4 7.7
2017-Sep-16 12:57N 34°09' W 119°53'5 9.3
2017-Sep-16 12:27N 34°13' W 119°50'5 9.6
2017-Sep-16 11:56N 34°17' W 119°47'4 9.7
2017-Sep-16 11:30N 34°20' W 119°44'5 3.1
2017-Sep-16 09:59N 34°24' W 119°42'0 0.0
2017-Sep-15 14:05N 34°24' W 119°42'0 0.0
2017-Sep-15 13:41N 34°24' W 119°42'0 0.0
2017-Sep-15 12:20N 34°24' W 119°42'0 0.0
2017-Sep-15 11:17N 34°24' W 119°42'0 0.0
2017-Sep-15 10:59N 34°24' W 119°42'0 0.0
2017-Sep-15 07:26N 34°24' W 119°42'0 0.0
2017-Sep-15 06:50N 34°24' W 119°42'0 0.0
2017-Sep-14 14:29N 34°24' W 119°42'0 0.0
2017-Sep-14 12:29N 34°24' W 119°42'  

Dump ship's entire track history